Time;durP1;ratioP1;P1;durP2;ratioP2;P2;SDS_P1;SDS_P2;PMS_P1;PMS_P2;Temp;Humidity;BMP_temperature;BMP_pressure;BME280_temperature;BME280_humidity;BME280_pressure;Samples;Min_cycle;Max_cycle;Signal;HPM_P1;HPM_P2
2023/08/19 00:01:07;;;;;;;;;;;23.40;63.10;;;;;;6066638;23;20019;-62
2023/08/19 00:03:33;;;;;;;1.25;0.95;;;23.30;63.10;;;;;;6042466;23;19988;-63
2023/08/19 00:06:05;;;;;;;2.88;1.33;;;23.20;63.20;;;;;;6065801;23;20041;-63
2023/08/19 00:08:31;;;;;;;1.42;0.77;;;23.10;63.60;;;;;;6042777;23;20437;-62
2023/08/19 00:10:57;;;;;;;;;;;23.10;64.00;;;;;;6068134;23;20070;-63
2023/08/19 00:13:23;;;;;;;1.15;0.65;;;23.00;63.80;;;;;;6090453;23;20027;-63
2023/08/19 00:15:48;;;;;;;;;;;23.00;64.20;;;;;;6066476;23;20006;-63
2023/08/19 00:18:14;;;;;;;0.93;0.77;;;22.90;64.40;;;;;;6067849;23;19944;-63
2023/08/19 00:20:40;;;;;;;;;;;22.90;64.50;;;;;;6065949;23;20043;-63
2023/08/19 00:23:06;;;;;;;2.00;1.23;;;22.90;64.60;;;;;;6042531;23;19988;-63
2023/08/19 00:25:33;;;;;;;;;;;22.80;64.90;;;;;;6068009;23;20017;-62
2023/08/19 00:27:59;;;;;;;;;;;22.80;64.80;;;;;;6068506;23;20011;-63
2023/08/19 00:30:26;;;;;;;1.45;1.00;;;22.80;64.30;;;;;;6067199;23;19918;-62
2023/08/19 00:32:52;;;;;;;1.63;0.90;;;22.80;65.10;;;;;;6042197;23;20011;-63
2023/08/19 00:35:18;;;;;;;;;;;22.80;65.00;;;;;;6066385;23;20011;-63
2023/08/19 00:37:44;;;;;;;6.33;1.10;;;22.80;65.00;;;;;;6068282;23;19969;-63
2023/08/19 00:40:29;;;;;;;;;;;22.80;65.00;;;;;;6042353;23;20074;-63
2023/08/19 00:42:55;;;;;;;2.25;1.30;;;22.80;64.80;;;;;;6068335;23;19937;-63
2023/08/19 00:45:21;;;;;;;;;;;22.80;65.50;;;;;;6042295;23;20010;-63
2023/08/19 00:47:47;;;;;;;3.47;1.98;;;22.70;65.30;;;;;;6042350;23;20379;-62
2023/08/19 00:50:15;;;;;;;1.17;0.80;;;22.70;65.20;;;;;;6067040;23;20409;-63
2023/08/19 00:52:42;;;;;;;2.25;1.65;;;22.70;65.30;;;;;;6065975;23;20011;-63
2023/08/19 00:55:09;;;;;;;1.60;0.88;;;22.70;65.70;;;;;;6065687;23;20046;-63
2023/08/19 00:57:39;;;;;;;1.13;0.82;;;22.70;65.50;;;;;;6068019;23;20015;-63
2023/08/19 01:00:06;;;;;;;2.22;1.10;;;22.70;65.50;;;;;;6067209;23;20030;-63
2023/08/19 01:02:32;;;;;;;2.22;1.88;;;22.70;65.70;;;;;;6041846;23;20082;-62
2023/08/19 01:04:59;;;;;;;1.27;1.05;;;22.80;65.70;;;;;;6067457;23;20023;-63
2023/08/19 01:08:06;;;;;;;1.75;1.17;;;22.70;65.20;;;;;;6065531;23;20018;-62
2023/08/19 01:11:29;;;;;;;2.35;1.13;;;22.80;65.60;;;;;;6066838;23;20011;-63
2023/08/19 01:14:37;;;;;;;1.58;1.25;;;22.70;65.80;;;;;;6067352;23;20437;-63
2023/08/19 01:17:05;;;;;;;1.30;0.90;;;22.70;66.10;;;;;;6067373;23;20077;-63
2023/08/19 01:19:32;;;;;;;2.08;0.98;;;22.60;66.10;;;;;;6065657;23;20019;-63
2023/08/19 01:25:32;;;;;;;1.25;0.70;;;22.60;66.50;;;;;;6067030;23;20441;-63
2023/08/19 01:28:22;;;;;;;3.42;1.35;;;22.60;66.60;;;;;;6065823;23;20098;-62
2023/08/19 01:30:48;;;;;;;0.63;0.47;;;22.60;66.60;;;;;;6066769;23;20046;-62
2023/08/19 01:33:14;;;;;;;;;;;22.60;66.70;;;;;;6066290;23;20038;-62
2023/08/19 01:35:50;;;;;;;1.85;1.10;;;22.60;66.40;;;;;;6041435;23;20004;-63
2023/08/19 01:38:40;;;;;;;1.60;1.15;;;22.50;66.70;;;;;;6067521;23;20057;-63
2023/08/19 01:41:09;;;;;;;1.45;0.90;;;22.50;66.70;;;;;;6066670;23;20027;-62
2023/08/19 01:43:36;;;;;;;1.42;0.63;;;22.50;67.40;;;;;;6067181;23;20011;-63
2023/08/19 01:46:03;;;;;;;2.20;1.38;;;22.40;67.10;;;;;;6066603;23;20026;-62
2023/08/19 01:48:29;;;;;;;1.58;1.00;;;22.50;67.00;;;;;;6041724;23;20010;-63
2023/08/19 01:50:54;;;;;;;;;;;22.50;66.90;;;;;;6067017;23;20059;-62
2023/08/19 01:53:20;;;;;;;1.85;0.95;;;22.50;66.80;;;;;;6067013;23;19997;-62
2023/08/19 01:55:46;;;;;;;1.05;0.70;;;22.40;66.90;;;;;;6065079;23;20030;-63
2023/08/19 01:58:12;;;;;;;;;;;22.40;66.80;;;;;;6067616;23;20011;-62
2023/08/19 02:00:38;;;;;;;3.65;1.80;;;22.40;66.70;;;;;;6066307;23;19984;-63
2023/08/19 02:03:05;;;;;;;;;;;22.40;66.80;;;;;;6065846;23;20006;-62
2023/08/19 02:05:31;;;;;;;1.95;1.25;;;22.40;66.70;;;;;;6065961;23;20299;-63
2023/08/19 02:07:57;;;;;;;;;;;22.40;66.60;;;;;;6067519;23;20098;-63
2023/08/19 02:10:23;;;;;;;1.17;0.93;;;22.30;66.60;;;;;;6066262;23;20332;-63
2023/08/19 02:12:49;;;;;;;;;;;22.20;66.30;;;;;;6067934;23;20310;-62
2023/08/19 02:15:15;;;;;;;2.10;1.25;;;22.20;66.50;;;;;;6017107;23;19988;-62
2023/08/19 02:17:41;;;;;;;;;;;22.10;66.50;;;;;;6067773;23;20015;-63
2023/08/19 02:20:07;;;;;;;2.28;0.90;;;22.00;66.50;;;;;;6040810;23;19924;-63
2023/08/19 02:22:33;;;;;;;1.45;0.63;;;21.90;66.00;;;;;;6066722;23;20039;-62
2023/08/19 02:24:59;;;;;;;;;;;21.90;66.70;;;;;;6066024;23;20011;-62
2023/08/19 02:27:25;;;;;;;3.15;2.13;;;21.80;66.50;;;;;;6066616;23;20013;-63
2023/08/19 02:29:52;;;;;;;1.75;1.23;;;21.90;66.90;;;;;;6066999;23;20340;-62
2023/08/19 02:32:18;;;;;;;0.30;0.30;;;21.90;66.50;;;;;;6066031;23;20444;-62
2023/08/19 02:34:44;;;;;;;;;;;21.90;66.50;;;;;;6067330;23;20011;-62
2023/08/19 02:37:13;;;;;;;1.73;0.82;;;21.90;66.50;;;;;;6066529;23;19960;-62
2023/08/19 02:39:39;;;;;;;1.98;1.27;;;21.90;66.60;;;;;;6041113;23;20014;-63
2023/08/19 02:42:05;;;;;;;;;;;21.90;66.70;;;;;;6041271;23;20034;-62
2023/08/19 02:44:31;;;;;;;1.70;1.23;;;21.90;66.60;;;;;;6066578;23;19910;-63
2023/08/19 02:46:56;;;;;;;;;;;21.90;66.80;;;;;;6065372;23;20025;-63
2023/08/19 02:49:22;;;;;;;1.02;0.93;;;21.90;66.70;;;;;;6041127;23;19984;-63
2023/08/19 02:51:48;;;;;;;0.95;0.88;;;21.90;66.80;;;;;;6066214;23;20345;-62
2023/08/19 02:54:14;;;;;;;;;;;21.90;67.00;;;;;;6067144;23;20072;-63
2023/08/19 02:56:40;;;;;;;0.85;0.73;;;21.90;66.90;;;;;;6040539;23;19988;-62
2023/08/19 02:59:06;;;;;;;;;;;21.90;67.10;;;;;;6067253;23;20041;-63
2023/08/19 03:01:32;;;;;;;0.98;0.57;;;21.80;67.00;;;;;;6066056;23;19938;-62
2023/08/19 03:03:58;;;;;;;;;;;21.90;67.00;;;;;;6067030;23;20421;-63
2023/08/19 03:06:24;;;;;;;1.83;0.80;;;21.80;66.80;;;;;;6065873;23;19996;-62
2023/08/19 03:08:50;;;;;;;;;;;21.80;66.90;;;;;;6067038;23;20018;-62
2023/08/19 03:11:16;;;;;;;0.63;0.40;;;21.80;67.10;;;;;;6065909;23;19996;-62
2023/08/19 03:13:42;;;;;;;;;;;21.70;67.90;;;;;;6067127;23;20084;-63
2023/08/19 03:16:08;;;;;;;1.00;0.70;;;21.60;67.10;;;;;;6042911;23;19996;-62
2023/08/19 03:18:34;;;;;;;;;;;21.50;67.00;;;;;;6070037;23;20015;-62
2023/08/19 03:21:00;;;;;;;0.85;0.60;;;21.50;67.10;;;;;;6043382;23;20295;-63
2023/08/19 03:23:27;;;;;;;1.20;0.63;;;21.50;66.80;;;;;;6044228;23;20015;-63
2023/08/19 03:25:55;;;;;;;1.67;1.13;;;21.40;66.60;;;;;;6069132;23;20022;-62
2023/08/19 03:28:22;;;;;;;0.90;0.77;;;21.40;66.70;;;;;;6069427;23;20006;-62
2023/08/19 03:30:48;;;;;;;1.52;1.10;;;21.40;66.90;;;;;;6043445;23;20011;-62
2023/08/19 03:33:14;;;;;;;1.95;1.40;;;21.30;66.50;;;;;;6068506;23;20011;-62
2023/08/19 03:35:40;;;;;;;;;;;21.40;66.90;;;;;;6069505;23;20015;-62
2023/08/19 03:38:06;;;;;;;1.92;1.27;;;21.40;66.90;;;;;;6069646;23;19960;-63
2023/08/19 03:40:32;;;;;;;1.15;1.02;;;21.40;66.90;;;;;;6067309;23;20094;-63
2023/08/19 03:42:58;;;;;;;1.83;1.00;;;21.40;66.40;;;;;;6069422;23;20015;-62
2023/08/19 03:45:24;;;;;;;;;;;21.40;67.00;;;;;;6044203;23;20015;-63
2023/08/19 03:47:50;;;;;;;0.55;0.40;;;21.40;66.90;;;;;;6070023;23;19918;-62
2023/08/19 03:50:16;;;;;;;;;;;21.30;67.10;;;;;;6069437;23;20018;-62
2023/08/19 03:52:42;;;;;;;0.95;0.73;;;21.30;67.00;;;;;;6044318;23;19921;-62
2023/08/19 03:55:08;;;;;;;;;;;21.30;67.10;;;;;;6069633;23;20022;-62
2023/08/19 03:57:34;;;;;;;0.30;0.30;;;21.30;67.10;;;;;;6069367;23;19914;-63
2023/08/19 04:00:00;;;;;;;;;;;21.30;67.10;;;;;;6070023;23;20019;-62
2023/08/19 04:02:26;;;;;;;1.42;1.30;;;21.30;67.20;;;;;;6043538;23;19917;-62
2023/08/19 04:05:12;;;;;;;0.70;0.60;;;21.30;67.40;;;;;;6044322;23;20110;-63
2023/08/19 04:07:39;;;;;;;0.65;0.40;;;21.20;67.50;;;;;;6068199;23;20021;-62
2023/08/19 04:10:06;;;;;;;1.77;1.02;;;21.20;67.50;;;;;;6043631;23;20093;-62
2023/08/19 04:12:32;;;;;;;1.50;0.80;;;21.10;67.60;;;;;;6069679;23;20026;-63
2023/08/19 04:14:58;;;;;;;0.82;0.57;;;21.20;67.30;;;;;;6069286;23;20014;-63
2023/08/19 04:17:24;;;;;;;0.85;0.50;;;21.20;66.90;;;;;;6069133;23;20015;-63
2023/08/19 04:19:51;;;;;;;;;;;21.30;67.70;;;;;;6069776;23;20078;-63
2023/08/19 04:22:17;;;;;;;1.23;1.13;;;21.20;67.70;;;;;;6069432;23;19917;-62
2023/08/19 04:25:07;;;;;;;1.38;0.95;;;21.20;67.50;;;;;;6067992;23;20090;-63
2023/08/19 04:27:33;;;;;;;0.43;0.40;;;21.20;67.50;;;;;;6068249;23;20795;-63
2023/08/19 04:29:59;;;;;;;;;;;21.20;67.70;;;;;;6068516;23;20015;-62
2023/08/19 04:32:25;;;;;;;0.85;0.47;;;21.30;67.80;;;;;;6067813;23;20012;-62
2023/08/19 04:34:50;;;;;;;;;;;21.30;67.70;;;;;;6068463;23;20014;-62
2023/08/19 04:37:16;;;;;;;2.22;1.35;;;21.20;67.80;;;;;;6067565;23;20016;-62
2023/08/19 04:39:42;;;;;;;1.98;0.75;;;21.30;67.80;;;;;;6067860;23;20015;-63
2023/08/19 04:42:08;;;;;;;;;;;21.30;67.90;;;;;;6068131;23;20433;-62
2023/08/19 04:44:34;;;;;;;1.02;0.65;;;21.30;67.90;;;;;;6042137;23;19916;-62
2023/08/19 04:47:00;;;;;;;1.65;1.02;;;21.30;67.90;;;;;;6067529;23;20377;-62
2023/08/19 04:49:26;;;;;;;;;;;21.30;68.10;;;;;;6068065;23;20070;-62
2023/08/19 04:51:52;;;;;;;1.23;0.98;;;21.30;68.00;;;;;;6067302;23;19949;-63
2023/08/19 04:54:18;;;;;;;1.05;0.60;;;21.30;67.90;;;;;;6067510;23;20010;-62
2023/08/19 04:56:44;;;;;;;;;;;21.30;68.10;;;;;;6067847;23;20022;-63
2023/08/19 04:59:10;;;;;;;1.30;0.68;;;21.30;67.90;;;;;;6067482;23;19941;-62
2023/08/19 05:01:36;;;;;;;;;;;21.40;67.80;;;;;;6067720;23;20034;-62
2023/08/19 05:04:02;;;;;;;1.08;0.80;;;21.40;68.90;;;;;;6067517;23;20352;-63
2023/08/19 05:06:29;;;;;;;4.60;2.30;;;21.50;68.20;;;;;;6067033;23;20135;-62
2023/08/19 05:08:55;;;;;;;1.23;0.75;;;21.40;68.30;;;;;;6066006;23;20058;-62
2023/08/19 05:11:21;;;;;;;;;;;21.50;68.20;;;;;;6065954;23;20031;-62
2023/08/19 05:13:47;;;;;;;1.15;0.73;;;21.60;68.00;;;;;;6067753;23;19956;-62
2023/08/19 05:16:13;;;;;;;;;;;21.60;68.10;;;;;;6067301;23;20019;-63
2023/08/19 05:18:39;;;;;;;0.98;0.52;;;21.70;68.10;;;;;;6067841;23;19910;-63
2023/08/19 05:21:05;;;;;;;;;;;21.80;67.90;;;;;;6066934;23;20033;-63
2023/08/19 05:23:31;;;;;;;1.75;0.88;;;21.80;68.10;;;;;;6042012;23;19952;-63
2023/08/19 05:25:57;;;;;;;;;;;21.80;68.00;;;;;;6041839;23;20015;-62
2023/08/19 05:28:23;;;;;;;1.23;0.68;;;21.90;68.00;;;;;;6041965;23;19992;-62
2023/08/19 05:30:49;;;;;;;;;;;22.00;67.90;;;;;;6041693;23;20018;-62
2023/08/19 05:33:15;;;;;;;1.33;0.73;;;22.00;67.90;;;;;;6067200;23;20008;-63
2023/08/19 05:35:40;;;;;;;;;;;22.10;67.90;;;;;;6067244;23;20011;-63
2023/08/19 05:38:06;;;;;;;0.57;0.40;;;22.10;68.00;;;;;;6066830;23;19993;-63
2023/08/19 05:40:32;;;;;;;;;;;22.10;67.80;;;;;;6067095;23;20383;-62
2023/08/19 05:42:58;;;;;;;0.73;0.55;;;22.20;67.70;;;;;;6067482;23;19913;-62
2023/08/19 05:45:24;;;;;;;;;;;22.30;67.90;;;;;;6067086;23;20015;-62
2023/08/19 05:47:50;;;;;;;0.47;0.47;;;22.40;67.80;;;;;;6041782;23;19996;-62
2023/08/19 05:50:17;;;;;;;;;;;22.50;67.50;;;;;;6066765;23;20014;-62
2023/08/19 05:52:43;;;;;;;1.58;0.80;;;22.80;67.40;;;;;;6067512;23;19929;-62
2023/08/19 05:55:09;;;;;;;;;;;22.90;66.90;;;;;;6066924;23;20007;-62
2023/08/19 05:57:35;;;;;;;1.95;1.38;;;23.10;67.30;;;;;;6041872;23;19956;-62
2023/08/19 06:00:00;;;;;;;;;;;23.30;66.40;;;;;;6042108;23;20341;-62
2023/08/19 06:02:26;;;;;;;0.65;0.55;;;23.40;66.70;;;;;;6066859;23;19956;-62
2023/08/19 06:04:52;;;;;;;;;;;23.50;66.20;;;;;;6042406;23;20011;-63
2023/08/19 06:07:25;;;;;;;1.35;1.17;;;23.60;66.70;;;;;;6066766;23;19924;-63
2023/08/19 06:09:51;;;;;;;0.82;0.52;;;23.70;66.90;;;;;;6066785;23;20018;-62
2023/08/19 06:12:17;;;;;;;2.35;0.85;;;23.80;66.20;;;;;;6040972;23;20074;-62
2023/08/19 06:14:43;;;;;;;;;;;23.80;66.30;;;;;;6067420;23;20380;-62
2023/08/19 06:17:09;;;;;;;1.13;0.77;;;23.90;66.80;;;;;;6066717;23;19968;-62
2023/08/19 06:19:35;;;;;;;;;;;23.90;67.50;;;;;;6067726;23;20007;-62
2023/08/19 06:22:01;;;;;;;0.70;0.68;;;23.90;67.80;;;;;;6066285;23;20295;-62
2023/08/19 06:24:27;;;;;;;;;;;24.00;67.90;;;;;;6067266;23;20034;-62
2023/08/19 06:26:53;;;;;;;2.03;0.73;;;24.00;68.00;;;;;;6066234;23;19924;-62
2023/08/19 06:29:19;;;;;;;;;;;24.00;68.30;;;;;;6065693;23;20015;-62
2023/08/19 06:31:46;;;;;;;1.85;0.85;;;24.10;68.60;;;;;;6066387;23;19996;-62
2023/08/19 06:34:12;;;;;;;0.95;0.70;;;24.10;67.40;;;;;;6066688;23;20015;-63
2023/08/19 06:36:42;;;;;;;2.50;1.10;;;24.30;67.30;;;;;;6066172;23;20022;-62
2023/08/19 06:39:28;;;;;;;1.67;0.88;;;24.40;67.50;;;;;;6041363;23;20089;-62
2023/08/19 06:42:04;;;;;;;1.42;0.80;;;24.50;67.00;;;;;;6064901;23;20023;-62
2023/08/19 06:44:33;;;;;;;2.15;1.33;;;24.70;67.10;;;;;;6066613;23;20033;-62
2023/08/19 06:47:02;;;;;;;2.83;1.75;;;24.70;66.80;;;;;;6040974;23;20315;-62
2023/08/19 06:49:29;;;;;;;0.98;0.80;;;24.70;66.80;;;;;;6064783;23;20069;-63
2023/08/19 06:51:55;;;;;;;2.00;1.45;;;24.80;66.00;;;;;;6066284;23;20436;-62
2023/08/19 06:54:22;;;;;;;1.98;0.88;;;24.80;65.60;;;;;;6065064;23;20099;-63
2023/08/19 06:56:56;;;;;;;1.48;0.80;;;24.90;65.30;;;;;;6064526;23;20064;-63
2023/08/19 06:59:46;;;;;;;1.55;1.08;;;25.00;65.40;;;;;;6065082;23;20034;-62
2023/08/19 07:02:15;;;;;;;0.98;0.70;;;25.20;64.90;;;;;;6040752;23;20066;-62
2023/08/19 07:04:45;;;;;;;3.95;1.85;;;25.30;64.40;;;;;;6066516;23;20444;-63
2023/08/19 07:07:13;;;;;;;1.58;1.48;;;25.40;64.20;;;;;;6066295;23;20011;-63
2023/08/19 07:09:40;;;;;;;1.42;0.85;;;25.50;63.70;;;;;;6041124;23;20483;-63
2023/08/19 07:12:06;;;;;;;1.10;0.98;;;25.60;63.20;;;;;;6040662;23;20023;-63
2023/08/19 07:14:35;;;;;;;2.72;1.05;;;25.70;63.10;;;;;;6040854;23;20022;-63
2023/08/19 07:19:48;;;;;;;4.70;0.60;;;26.00;63.10;;;;;;6065003;23;20459;-63
2023/08/19 07:22:15;;;;;;;3.13;1.27;;;26.10;62.50;;;;;;6064341;23;20019;-63
2023/08/19 07:24:42;;;;;;;1.95;0.65;;;26.10;61.70;;;;;;6065005;23;20007;-63
2023/08/19 07:27:10;;;;;;;1.58;1.02;;;26.20;61.80;;;;;;6066183;23;20023;-63
2023/08/19 07:29:37;;;;;;;2.25;1.83;;;26.20;61.80;;;;;;6040870;23;20026;-63
2023/08/19 07:32:05;;;;;;;2.75;1.98;;;26.30;61.60;;;;;;6064449;23;20014;-63
2023/08/19 07:34:31;;;;;;;1.52;0.65;;;26.40;61.40;;;;;;6066327;23;20445;-62
2023/08/19 07:36:57;;;;;;;1.48;1.10;;;26.40;61.40;;;;;;6066051;23;20019;-63
2023/08/19 07:39:25;;;;;;;0.40;0.30;;;26.40;61.00;;;;;;6064929;23;20014;-62
2023/08/19 07:41:51;;;;;;;2.08;1.55;;;26.50;61.00;;;;;;6066052;23;20019;-62
2023/08/19 07:44:17;;;;;;;2.03;1.35;;;26.50;61.20;;;;;;6066363;23;20046;-63
2023/08/19 07:46:43;;;;;;;2.20;1.30;;;26.70;60.70;;;;;;6064471;23;20026;-63
2023/08/19 07:49:09;;;;;;;2.17;1.60;;;26.80;60.00;;;;;;6066584;23;20011;-63
2023/08/19 07:51:35;;;;;;;1.92;1.08;;;27.00;60.30;;;;;;6065409;23;20018;-63
2023/08/19 07:54:01;;;;;;;1.73;0.88;;;27.20;59.70;;;;;;6066177;23;20007;-63
2023/08/19 07:56:27;;;;;;;0.90;0.65;;;27.40;59.10;;;;;;6065789;23;20026;-63
2023/08/19 07:58:53;;;;;;;2.95;1.30;;;27.70;58.70;;;;;;6064775;23;20007;-63
2023/08/19 08:01:19;;;;;;;3.03;0.73;;;28.00;58.10;;;;;;6065530;23;20078;-63
2023/08/19 08:03:45;;;;;;;2.55;1.55;;;28.30;57.80;;;;;;6042754;23;20050;-64
2023/08/19 08:06:11;;;;;;;1.23;0.88;;;28.40;57.10;;;;;;6067443;23;20023;-63
2023/08/19 08:08:37;;;;;;;0.77;0.68;;;28.60;56.90;;;;;;6068213;23;20018;-63
2023/08/19 08:11:04;;;;;;;1.98;1.48;;;28.90;56.10;;;;;;6065973;23;20015;-63
2023/08/19 08:13:30;;;;;;;1.20;0.85;;;29.10;55.70;;;;;;6067980;23;20346;-64
2023/08/19 08:15:56;;;;;;;0.47;0.47;;;29.40;55.00;;;;;;6067360;23;20026;-63
2023/08/19 08:18:22;;;;;;;2.53;1.42;;;29.50;54.50;;;;;;6066456;23;20015;-63
2023/08/19 08:20:49;;;;;;;1.48;1.25;;;29.80;53.40;;;;;;6066975;23;20042;-63
2023/08/19 08:23:15;;;;;;;1.55;1.10;;;29.80;53.50;;;;;;6067929;23;20026;-63
2023/08/19 08:25:41;;;;;;;1.50;1.02;;;29.90;52.40;;;;;;6065788;23;20015;-63
2023/08/19 08:28:07;;;;;;;1.73;0.95;;;30.20;52.70;;;;;;6067870;23;20018;-63
2023/08/19 08:30:33;;;;;;;1.70;1.20;;;30.40;51.70;;;;;;6067078;23;20019;-63
2023/08/19 08:32:59;;;;;;;1.85;1.20;;;30.60;50.60;;;;;;6067724;23;20015;-63
2023/08/19 08:35:26;;;;;;;1.77;1.00;;;30.90;49.70;;;;;;6066787;23;20449;-64
2023/08/19 08:37:52;;;;;;;3.45;2.38;;;31.20;48.80;;;;;;6068232;23;20022;-64
2023/08/19 08:40:18;;;;;;;3.70;2.63;;;31.50;48.20;;;;;;6041762;23;20015;-65
2023/08/19 08:42:46;;;;;;;5.78;3.47;;;31.80;47.60;;;;;;6066327;23;20015;-63
2023/08/19 08:45:13;;;;;;;2.72;1.88;;;32.20;47.10;;;;;;6064691;23;20093;-64
2023/08/19 08:47:41;;;;;;;4.72;2.05;;;32.90;44.90;;;;;;6066251;23;20090;-66
2023/08/19 08:50:08;;;;;;;4.45;2.03;;;33.20;44.10;;;;;;6066797;23;20357;-66
2023/08/19 08:52:35;;;;;;;2.75;1.75;;;33.50;43.30;;;;;;6068335;23;20038;-64
2023/08/19 08:55:02;;;;;;;3.10;1.40;;;33.80;42.60;;;;;;6042003;23;20014;-65
2023/08/19 08:57:28;;;;;;;1.45;1.13;;;34.30;41.60;;;;;;6042178;23;20025;-66
2023/08/19 08:59:54;;;;;;;1.63;1.20;;;35.00;40.40;;;;;;6067637;23;20021;-67
2023/08/19 09:02:23;;;;;;;0.70;0.60;;;35.60;38.20;;;;;;6065096;23;20017;-67
2023/08/19 09:04:49;;;;;;;1.70;1.55;;;36.20;37.00;;;;;;6065970;23;20082;-66
2023/08/19 09:07:56;;;;;;;1.05;0.80;;;36.90;35.70;;;;;;6065637;23;20046;-67
2023/08/19 09:10:27;;;;;;;1.33;0.98;;;37.40;35.20;;;;;;6066589;23;20028;-66
2023/08/19 09:13:14;;;;;;;1.13;0.75;;;37.80;33.40;;;;;;6065891;23;20011;-67
2023/08/19 09:15:40;;;;;;;1.25;1.15;;;38.40;33.00;;;;;;6065144;23;20011;-68
2023/08/19 09:18:07;;;;;;;1.90;1.25;;;38.80;31.70;;;;;;6065992;23;20385;-66
2023/08/19 09:20:33;;;;;;;2.42;0.90;;;39.10;31.00;;;;;;6064772;23;20023;-69
2023/08/19 09:23:20;;;;;;;1.58;1.08;;;39.50;29.80;;;;;;6067579;23;20465;-68
2023/08/19 09:25:46;;;;;;;1.17;1.00;;;40.00;30.10;;;;;;6063027;23;20070;-66
2023/08/19 09:28:17;;;;;;;3.63;1.38;;;40.50;29.00;;;;;;6033417;23;20019;-67
2023/08/19 09:30:44;;;;;;;1.88;1.20;;;40.80;28.10;;;;;;6058419;23;20014;-68
2023/08/19 09:33:19;;;;;;;2.40;1.55;;;41.30;27.50;;;;;;6009410;23;20025;-67
2023/08/19 09:35:55;;;;;;;1.52;1.13;;;41.60;27.20;;;;;;6058341;23;20062;-67
2023/08/19 09:38:24;;;;;;;2.72;1.35;;;41.60;26.90;;;;;;6057840;23;20922;-68
2023/08/19 09:41:10;;;;;;;3.72;1.75;;;41.40;26.60;;;;;;6057170;23;20097;-68
2023/08/19 09:43:56;;;;;;;1.58;1.33;;;41.20;27.10;;;;;;6058976;23;20029;-68
2023/08/19 09:46:45;;;;;;;1.83;1.25;;;41.10;27.00;;;;;;6033132;23;20335;-68
2023/08/19 09:49:39;;;;;;;1.52;1.20;;;41.20;27.00;;;;;;6057609;23;20019;-68
2023/08/19 09:52:05;;;;;;;1.40;1.08;;;41.50;26.30;;;;;;6058634;23;20015;-68
2023/08/19 09:54:31;;;;;;;2.35;1.17;;;42.00;25.70;;;;;;6057124;23;20085;-68
2023/08/19 09:56:58;;;;;;;1.70;1.08;;;42.30;25.50;;;;;;6058555;23;20058;-68
2023/08/19 09:59:26;;;;;;;2.33;1.45;;;42.40;25.30;;;;;;6058851;23;20090;-67
2023/08/19 10:01:53;;;;;;;1.27;1.08;;;42.30;25.30;;;;;;6032048;23;20034;-69
2023/08/19 10:04:20;;;;;;;1.98;1.40;;;42.20;25.40;;;;;;6033392;23;20015;-66
2023/08/19 10:06:49;;;;;;;4.35;1.42;;;42.50;25.10;;;;;;6032886;23;20337;-69
2023/08/19 10:09:18;;;;;;;0.90;0.80;;;42.70;24.90;;;;;;6058848;23;20089;-64
2023/08/19 10:11:45;;;;;;;1.33;0.90;;;43.00;23.30;;;;;;6032325;23;20014;-65
2023/08/19 10:14:12;;;;;;;2.92;1.33;;;43.00;23.00;;;;;;6033196;23;20062;-64
2023/08/19 10:17:04;;;;;;;2.38;1.75;;;42.60;23.40;;;;;;6057647;23;20030;-63
2023/08/19 10:19:40;;;;;;;1.85;1.10;;;42.50;23.00;;;;;;6033042;23;20018;-64
2023/08/19 10:22:08;;;;;;;2.72;1.27;;;42.60;23.30;;;;;;6055137;23;20385;-64
2023/08/19 10:24:36;;;;;;;2.15;1.48;;;42.60;23.20;;;;;;6056337;23;20066;-65
2023/08/19 10:27:02;;;;;;;2.05;1.00;;;42.80;23.20;;;;;;6056265;23;20026;-65
2023/08/19 10:29:29;;;;;;;3.28;2.25;;;43.30;23.40;;;;;;6031867;23;20063;-63
2023/08/19 10:31:54;;;;;;;2.47;1.85;;;42.80;23.10;;;;;;6056758;23;20018;-64
2023/08/19 10:34:45;;;;;;;2.40;1.65;;;42.50;23.50;;;;;;6058866;23;20341;-63
2023/08/19 10:37:12;;;;;;;3.25;1.85;;;42.00;24.00;;;;;;6058045;23;20131;-64
2023/08/19 10:39:38;;;;;;;2.20;1.35;;;41.60;24.40;;;;;;6032428;23;20046;-64
2023/08/19 10:42:04;;;;;;;2.05;1.42;;;40.90;24.80;;;;;;6058090;23;20038;-63
2023/08/19 10:44:33;;;;;;;2.33;1.73;;;40.80;25.30;;;;;;6058223;23;20022;-63
2023/08/19 10:50:17;;;;;;;2.65;1.55;;;40.70;25.30;;;;;;6058118;23;20022;-65
2023/08/19 10:53:04;;;;;;;2.53;1.58;;;40.10;26.50;;;;;;6059071;23;20014;-63
2023/08/19 10:56:26;;;;;;;1.63;1.08;;;40.90;25.50;;;;;;6032190;23;20018;-65
2023/08/19 10:58:53;;;;;;;2.10;1.67;;;41.90;24.70;;;;;;6058462;23;20019;-63
2023/08/19 11:01:19;;;;;;;2.65;1.73;;;42.30;24.40;;;;;;6055518;23;20078;-65
2023/08/19 11:03:46;;;;;;;2.15;1.40;;;42.50;24.00;;;;;;6058249;23;20057;-64
2023/08/19 11:06:12;;;;;;;2.25;2.00;;;43.30;23.80;;;;;;6056628;23;20326;-63
2023/08/19 11:09:15;;;;;;;2.67;1.65;;;43.80;22.90;;;;;;6058098;23;20018;-63
2023/08/19 11:11:41;;;;;;;2.53;1.55;;;44.30;22.50;;;;;;6057536;23;20098;-63
2023/08/19 11:14:07;;;;;;;1.30;1.08;;;44.70;22.10;;;;;;6058538;23;20018;-64
2023/08/19 11:16:33;;;;;;;2.60;1.88;;;44.30;22.40;;;;;;6057578;23;20022;-65
2023/08/19 11:19:01;;;;;;;1.75;1.10;;;42.90;23.30;;;;;;6058144;23;20011;-63
2023/08/19 11:21:27;;;;;;;2.90;1.70;;;41.40;24.90;;;;;;6055012;23;20033;-63
2023/08/19 11:23:53;;;;;;;1.50;1.38;;;40.30;26.20;;;;;;6058488;23;20011;-64
2023/08/19 11:26:20;;;;;;;3.25;1.80;;;39.50;27.20;;;;;;6056881;23;20023;-63
2023/08/19 11:28:49;;;;;;;6.65;1.67;;;38.80;27.90;;;;;;6058004;23;20038;-64
2023/08/19 11:31:15;;;;;;;3.10;2.60;;;39.00;28.30;;;;;;6057458;23;20019;-65
2023/08/19 11:33:42;;;;;;;2.83;1.75;;;40.90;26.20;;;;;;6057603;23;20015;-65
2023/08/19 11:36:08;;;;;;;2.35;1.58;;;42.30;24.80;;;;;;6058494;23;20034;-63
2023/08/19 11:38:34;;;;;;;2.95;1.67;;;42.30;24.60;;;;;;6034630;23;20418;-64
2023/08/19 11:41:01;;;;;;;2.55;1.50;;;43.10;24.10;;;;;;6059482;23;20073;-64
2023/08/19 11:43:28;;;;;;;1.88;1.33;;;43.80;23.00;;;;;;6034992;23;20066;-64
2023/08/19 11:45:59;;;;;;;5.70;2.85;;;44.70;22.10;;;;;;6059540;23;20027;-64
2023/08/19 11:48:26;;;;;;;2.40;2.10;;;45.30;21.40;;;;;;6034793;23;20014;-64
2023/08/19 11:50:52;;;;;;;2.25;1.60;;;45.50;20.80;;;;;;6059342;23;20034;-63
2023/08/19 11:53:37;;;;;;;2.22;1.70;;;45.60;20.60;;;;;;6060089;23;20013;-63
2023/08/19 11:56:03;;;;;;;2.90;2.05;;;45.90;19.80;;;;;;6057394;23;20046;-64
2023/08/19 11:58:50;;;;;;;3.30;2.40;;;46.50;20.30;;;;;;6060173;23;20394;-63
2023/08/19 12:01:36;;;;;;;1.50;1.17;;;47.20;19.50;;;;;;6059888;23;20039;-65
2023/08/19 12:04:29;;;;;;;4.03;2.92;;;47.10;19.20;;;;;;6058514;23;20026;-63
2023/08/19 12:06:55;;;;;;;2.53;1.35;;;47.90;18.60;;;;;;6034037;23;20056;-65
2023/08/19 12:09:51;;;;;;;3.58;2.38;;;48.10;19.00;;;;;;6032937;23;20017;-64
2023/08/19 12:12:17;;;;;;;1.20;1.10;;;48.00;18.60;;;;;;6058797;23;20022;-65
2023/08/19 12:14:43;;;;;;;2.35;1.98;;;47.50;18.70;;;;;;6059388;23;20038;-63
2023/08/19 12:17:11;;;;;;;2.50;1.73;;;47.50;18.90;;;;;;6059048;23;20018;-64
2023/08/19 12:19:37;;;;;;;1.23;1.13;;;47.40;18.90;;;;;;6059225;23;20022;-64
2023/08/19 12:22:03;;;;;;;2.00;1.67;;;47.60;18.90;;;;;;6058792;23;20027;-64
2023/08/19 12:24:30;;;;;;;2.22;1.70;;;47.60;18.40;;;;;;6058028;23;20034;-64
2023/08/19 12:26:56;;;;;;;2.50;1.90;;;47.80;18.10;;;;;;6059527;23;20035;-63
2023/08/19 12:29:23;;;;;;;2.38;1.75;;;47.70;18.80;;;;;;6033797;23;20011;-64
2023/08/19 12:31:49;;;;;;;3.10;2.25;;;47.50;19.00;;;;;;6058772;23;20078;-64
2023/08/19 12:34:16;;;;;;;2.50;2.03;;;47.20;19.30;;;;;;6059338;23;20019;-64
2023/08/19 12:36:42;;;;;;;3.47;2.65;;;47.70;19.00;;;;;;6033463;23;20041;-64
2023/08/19 12:39:08;;;;;;;2.28;1.55;;;47.90;18.60;;;;;;6034384;23;20015;-64
2023/08/19 12:41:34;;;;;;;2.47;2.22;;;47.90;18.30;;;;;;6058536;23;20085;-64
2023/08/19 12:44:00;;;;;;;2.55;1.77;;;47.50;18.50;;;;;;6057874;23;20035;-63
2023/08/19 12:46:40;;;;;;;2.72;1.67;;;47.20;18.80;;;;;;6058626;23;20026;-63
2023/08/19 12:49:06;;;;;;;2.38;1.77;;;46.90;18.80;;;;;;6058877;23;20064;-64
2023/08/19 12:51:32;;;;;;;2.70;2.35;;;46.60;19.30;;;;;;6058124;23;20019;-63
2023/08/19 12:53:58;;;;;;;2.13;1.75;;;46.60;19.60;;;;;;6060059;23;20072;-64
2023/08/19 12:56:24;;;;;;;2.08;1.88;;;47.10;19.10;;;;;;6058223;23;20052;-63
2023/08/19 12:58:50;;;;;;;1.58;1.45;;;47.90;18.60;;;;;;6057783;23;20014;-65
2023/08/19 13:01:16;;;;;;;2.25;1.55;;;48.30;18.10;;;;;;6033268;23;20449;-64
2023/08/19 13:03:43;;;;;;;1.95;1.52;;;48.60;17.90;;;;;;6059455;23;20349;-64
2023/08/19 13:06:09;;;;;;;3.17;1.70;;;49.10;17.80;;;;;;6058556;23;20089;-64
2023/08/19 13:08:38;;;;;;;1.60;1.38;;;49.50;17.50;;;;;;6058798;23;20433;-64
2023/08/19 13:11:04;;;;;;;3.13;2.15;;;49.80;17.10;;;;;;6032482;23;20026;-64
2023/08/19 13:13:30;;;;;;;1.75;1.65;;;50.30;16.50;;;;;;6059158;23;20409;-63
2023/08/19 13:15:56;;;;;;;2.45;1.80;;;50.70;16.40;;;;;;6057135;23;20023;-64
2023/08/19 13:18:22;;;;;;;2.42;2.10;;;50.90;15.90;;;;;;6058917;23;20011;-64